Promitheas — SYIJ — position and weather

sailwx.info

Track history (hours):
 
Tides and Currents Weather Stations Pressure Air Temp Water Temp Dewpoint Dewpoint Depression Visibility Wind Speed Wind Dir Waves Ship Positions

Promitheas

Last reported at 2016-Jul-26 13:20 UTC. Time now 2016-Jul-30 16:53 UTC.
Position N 38°28' W 008°48'.

Length 249 m; draft 7 m.

Type: Tanker. MMSI: 240547000.

Date/timePositionNaut miles runAvg speedWind from/ knotsBaromVisibWave heightAir tempDewpointWater temp
2016-Jul-26 13:20N 38°28' W 008°48'0 0.0
2016-Jul-26 12:32N 38°28' W 008°48'0 0.0
2016-Jul-26 11:29N 38°28' W 008°48'0 0.0
2016-Jul-26 10:32N 38°28' W 008°48'0 0.0
2016-Jul-26 09:33N 38°28' W 008°48'  
2016-Jul-23 18:11N 38°28' W 008°48'0 0.0
2016-Jul-23 17:34N 38°28' W 008°48'0 0.0
2016-Jul-23 16:33N 38°28' W 008°48'0 0.0
2016-Jul-23 15:33N 38°28' W 008°48'0 0.0
2016-Jul-23 14:33N 38°28' W 008°48'0 0.0
2016-Jul-23 13:34N 38°28' W 008°48'0 0.0
2016-Jul-23 12:34N 38°28' W 008°48'0 0.0
2016-Jul-23 11:33N 38°28' W 008°48'0 0.0
2016-Jul-23 10:33N 38°28' W 008°48'0 0.0
2016-Jul-23 09:33N 38°28' W 008°48'0 0.0
2016-Jul-23 08:33N 38°28' W 008°48'0 0.0
2016-Jul-23 07:34N 38°28' W 008°48'0 0.0
2016-Jul-23 06:33N 38°28' W 008°48'1 0.3
2016-Jul-23 04:31N 38°28' W 008°48'0 0.0
2016-Jul-23 03:33N 38°28' W 008°48'0 0.0
2016-Jul-23 02:32N 38°28' W 008°48'0 0.0
2016-Jul-22 18:28N 38°28' W 008°48'0 0.0
2016-Jul-22 17:32N 38°28' W 008°48'0 0.0
2016-Jul-22 16:33N 38°28' W 008°48'0 0.0
2016-Jul-22 15:32N 38°28' W 008°48'0 0.0
2016-Jul-22 14:33N 38°28' W 008°48'0 0.0
2016-Jul-22 13:33N 38°28' W 008°48'0 0.0
2016-Jul-22 12:29N 38°28' W 008°48'0 0.0
2016-Jul-22 11:23N 38°28' W 008°48'0 0.4
2016-Jul-22 10:33N 38°28' W 008°48'4 3.6
2016-Jul-22 09:34N 38°29' W 008°53'8 7.5
2016-Jul-22 08:33N 38°25' W 009°00'5 4.7
2016-Jul-22 07:33N 38°21' W 009°03'13 6.4
2016-Jul-22 05:34N 38°08' W 009°05'1212.4
2016-Jul-22 04:33N 38°00' W 009°18'1110.6
2016-Jul-22 03:33N 38°04' W 009°30'1212.4
2016-Jul-22 02:33N 38°11' W 009°44'1312.7
2016-Jul-22 01:32N 38°08' W 009°60'1212.1
2016-Jul-22 00:31N 38°05' W 010°15'1212.0
2016-Jul-21 23:32N 38°03' W 010°30'1412.4
2016-Jul-21 22:25N 38°01' W 010°47'1213.5
2016-Jul-21 21:30N 37°59' W 011°02'2612.6
2016-Jul-21 19:27N 37°52' W 011°34'  
Track history (hours):
 
Tides and Currents Weather Stations Pressure Air Temp Water Temp Dewpoint Dewpoint Depression Visibility Wind Speed Wind Dir Waves Ship Positions

Promitheas

Last reported at 2016-Jul-26 13:20 UTC. Time now 2016-Jul-30 16:53 UTC.
Position N 38°28' W 008°48'.

Length 249 m; draft 7 m.

Type: Tanker. MMSI: 240547000.

Date/timePositionNaut miles runAvg speedWind from/ knotsBaromVisibWave heightAir tempDewpointWater temp
2016-Jul-26 13:20N 38°28' W 008°48'0 0.0
2016-Jul-26 12:32N 38°28' W 008°48'0 0.0
2016-Jul-26 11:29N 38°28' W 008°48'0 0.0
2016-Jul-26 10:32N 38°28' W 008°48'0 0.0
2016-Jul-26 09:33N 38°28' W 008°48'  
2016-Jul-23 18:11N 38°28' W 008°48'0 0.0
2016-Jul-23 17:34N 38°28' W 008°48'0 0.0
2016-Jul-23 16:33N 38°28' W 008°48'0 0.0
2016-Jul-23 15:33N 38°28' W 008°48'0 0.0
2016-Jul-23 14:33N 38°28' W 008°48'0 0.0
2016-Jul-23 13:34N 38°28' W 008°48'0 0.0
2016-Jul-23 12:34N 38°28' W 008°48'0 0.0
2016-Jul-23 11:33N 38°28' W 008°48'0 0.0
2016-Jul-23 10:33N 38°28' W 008°48'0 0.0
2016-Jul-23 09:33N 38°28' W 008°48'0 0.0
2016-Jul-23 08:33N 38°28' W 008°48'0 0.0
2016-Jul-23 07:34N 38°28' W 008°48'0 0.0
2016-Jul-23 06:33N 38°28' W 008°48'1 0.3
2016-Jul-23 04:31N 38°28' W 008°48'0 0.0
2016-Jul-23 03:33N 38°28' W 008°48'0 0.0
2016-Jul-23 02:32N 38°28' W 008°48'0 0.0
2016-Jul-22 18:28N 38°28' W 008°48'0 0.0
2016-Jul-22 17:32N 38°28' W 008°48'0 0.0
2016-Jul-22 16:33N 38°28' W 008°48'0 0.0
2016-Jul-22 15:32N 38°28' W 008°48'0 0.0
2016-Jul-22 14:33N 38°28' W 008°48'0 0.0
2016-Jul-22 13:33N 38°28' W 008°48'0 0.0
2016-Jul-22 12:29N 38°28' W 008°48'0 0.0
2016-Jul-22 11:23N 38°28' W 008°48'0 0.4
2016-Jul-22 10:33N 38°28' W 008°48'4 3.6
2016-Jul-22 09:34N 38°29' W 008°53'8 7.5
2016-Jul-22 08:33N 38°25' W 009°00'5 4.7
2016-Jul-22 07:33N 38°21' W 009°03'13 6.4
2016-Jul-22 05:34N 38°08' W 009°05'1212.4
2016-Jul-22 04:33N 38°00' W 009°18'1110.6
2016-Jul-22 03:33N 38°04' W 009°30'1212.4
2016-Jul-22 02:33N 38°11' W 009°44'1312.7
2016-Jul-22 01:32N 38°08' W 009°60'1212.1
2016-Jul-22 00:31N 38°05' W 010°15'1212.0
2016-Jul-21 23:32N 38°03' W 010°30'1412.4
2016-Jul-21 22:25N 38°01' W 010°47'1213.5
2016-Jul-21 21:30N 37°59' W 011°02'2612.6
2016-Jul-21 19:27N 37°52' W 011°34'  

Dump ship's entire track history